Thunder radar more information blitzortung!


Radar de pluja more information rain snow radar


Visita la nostra xarxa de llocs de meteo:

Template documentation
and downloads

And another site



Extreme low temperature From: 13-12-2017 09:00 Until: 09:59 warning for: Extreme low temperature Level: Yellow info button

Pagina Historial Weather Underground text

Diari Resum May 16, 2017 Unitats:  Imperial    Mètric   Tant
« Previous Dia
SegĂźent Dia »
Diari Setmana Mensual Anual Personalitzada
  Maxima: Minima: Media:
Temperatura: 84.9 °F 58.8 °F 73.6 °F
Punt de rosada: 55.9 °F 42.3 °F 49.5 °F
Humitat: 72 % 28 % 45 %
Wind Speed: 13.8 mph 0 mph 4.1 mph
RĂ fegues de vent: 13.8 mph - -
Vent:- - SSE
Pression baro: 30.3 in 30.2 in -
Precipitacions: 0 in    
Historical Graphs
 
 
Dades de taula per May 16, 2017
Temps Temperatura Punt de rosada Pression baro Vent Wind Speed RĂ fegues de vent Humitat Rainfall Rate (Hourly)
00:03 65.1 °F 50.4 °F 30.3 in Calm     59 % 0 in
00:05 60.1 °F 50.4 °F 30.3 in Calm   1 mph 70 % 0 in
00:15 59.7 °F 49.8 °F 30.3 in Calm     70 % 0 in
00:25 59.5 °F 49.6 °F 30.3 in Calm     70 % 0 in
00:35 59.5 °F 49.6 °F 30.3 in Calm   1 mph 70 % 0 in
00:45 59.5 °F 49.6 °F 30.3 in Calm   2 mph 70 % 0 in
01:05 59.5 °F 49.6 °F 30.3 in Calm     70 % 0 in
01:15 59.4 °F 50 °F 30.3 in Calm   1 mph 71 % 0 in
01:25 58.8 °F 49.1 °F 30.3 in WSW 1 mph 1 mph 70 % 0 in
01:35 58.8 °F 49.1 °F 30.3 in WSW 2 mph 2 mph 70 % 0 in
01:45 58.8 °F 49.1 °F 30.3 in WSW 2 mph 2 mph 70 % 0 in
01:55 58.8 °F 49.5 °F 30.3 in Calm   2 mph 71 % 0 in
02:05 58.8 °F 49.8 °F 30.3 in Calm     72 % 0 in
02:15 59.7 °F 50.7 °F 30.3 in Calm   1 mph 72 % 0 in
02:25 60.4 °F 51.1 °F 30.3 in Calm     71 % 0 in
02:35 61.2 °F 51.6 °F 30.3 in Calm     71 % 0 in
02:45 61.3 °F 51.4 °F 30.3 in SSE 1 mph 1 mph 70 % 0 in
02:55 62.4 °F 52.2 °F 30.3 in East 1 mph 2 mph 69 % 0 in
03:05 62.2 °F 51.4 °F 30.3 in ESE 1 mph 2 mph 68 % 0 in
03:15 62.2 °F 51.4 °F 30.3 in SSW 1 mph 2 mph 68 % 0 in
03:25 62.4 °F 51.6 °F 30.3 in SW 1 mph 2 mph 68 % 0 in
03:35 63.1 °F 51.6 °F 30.3 in SW 2 mph 3 mph 66 % 0 in
03:45 65.8 °F 54.1 °F 30.3 in SSW 1 mph 1 mph 66 % 0 in
03:55 66.2 °F 52.9 °F 30.3 in SSW 1 mph 2 mph 62 % 0 in
04:05 67.1 °F 53.6 °F 30.3 in SW 1 mph 2 mph 62 % 0 in
04:15 69.3 °F 54.9 °F 30.3 in South 1 mph 2 mph 60 % 0 in
04:25 69.8 °F 54.3 °F 30.3 in ENE 1 mph 3 mph 58 % 0 in
04:35 70.5 °F 55 °F 30.3 in NE 1 mph 3 mph 58 % 0 in
04:45 70.2 °F 54.1 °F 30.3 in ENE 2 mph 3 mph 57 % 0 in
04:55 70.5 °F 54.5 °F 30.3 in NE 5 mph 6 mph 57 % 0 in
05:05 72 °F 54.9 °F 30.3 in NE 2 mph 4 mph 55 % 0 in
05:15 72.9 °F 55.8 °F 30.3 in ENE 1 mph 3 mph 55 % 0 in
05:25 73.8 °F 55.6 °F 30.3 in NE 1 mph 4 mph 53 % 0 in
05:35 73.9 °F 54.1 °F 30.3 in NNE 3 mph 4 mph 50 % 0 in
05:45 75.4 °F 55.4 °F 30.3 in East 2 mph 3 mph 50 % 0 in
10:46 75.4 °F 55.4 °F 30.3 in ENE 1.2 mph   50 % 0 in
10:51 75.6 °F 55.6 °F 30.3 in NNE 4.6 mph 4.6 mph 50 % 0 in
10:56 76.1 °F 55.6 °F 30.3 in NE 4.6 mph 4.6 mph 49 % 0 in
11:01 75.9 °F 55.4 °F 30.3 in ENE 4.9 mph 4.9 mph 49 % 0 in
11:06 75.9 °F 54.9 °F 30.3 in ESE 3.5 mph 3.5 mph 48 % 0 in
11:11 76.6 °F 55.6 °F 30.3 in ENE 5.8 mph 5.8 mph 48 % 0 in
11:16 77.2 °F 55.9 °F 30.3 in NNE 3.5 mph 3.5 mph 48 % 0 in
11:21 77 °F 55.2 °F 30.3 in East 3.5 mph 3.5 mph 47 % 0 in
11:26 77.2 °F 55.4 °F 30.3 in East 5.8 mph 5.8 mph 47 % 0 in
11:31 76.8 °F 55 °F 30.3 in East 5.8 mph 5.8 mph 47 % 0 in
11:36 77 °F 54.7 °F 30.3 in ENE 6.9 mph 6.9 mph 46 % 0 in
11:41 77.4 °F 55 °F 30.3 in ENE 4.6 mph 4.6 mph 46 % 0 in
11:46 78.1 °F 55.6 °F 30.3 in ESE 5.8 mph 5.8 mph 46 % 0 in
11:51 78.4 °F 55.2 °F 30.3 in ENE 4.6 mph 4.6 mph 45 % 0 in
11:56 79 °F 55.8 °F 30.3 in ESE 5.9 mph 5.9 mph 45 % 0 in
12:01 79.2 °F 55.9 °F 30.3 in ESE 4.6 mph 4.6 mph 45 % 0 in
12:06 79.7 °F 55.9 °F 30.3 in SE 4.6 mph 4.6 mph 44 % 0 in
12:11 79.7 °F 55.9 °F 30.3 in NNE 4.6 mph 4.6 mph 44 % 0 in
12:16 79.5 °F 54.3 °F 30.3 in North 3.1 mph 3.1 mph 42 % 0 in
12:21 80.8 °F 54.9 °F 30.3 in SSE 4.6 mph 4.6 mph 41 % 0 in
12:26 80.4 °F 54.7 °F 30.3 in SE 6 mph 6 mph 41 % 0 in
12:31 79.9 °F 54.1 °F 30.3 in ESE 4.6 mph 4.6 mph 41 % 0 in
12:36 79.9 °F 54.1 °F 30.3 in SE 8.1 mph 8.1 mph 41 % 0 in
12:41 80.1 °F 54.1 °F 30.3 in NE 5.8 mph 5.8 mph 41 % 0 in
12:46 80.1 °F 54.1 °F 30.3 in ENE 9.2 mph 9.2 mph 41 % 0 in
12:51 80.8 °F 54.9 °F 30.3 in ENE 5.9 mph 5.9 mph 41 % 0 in
12:56 80.8 °F 54.1 °F 30.3 in East 6 mph 6 mph 40 % 0 in
13:01 80.8 °F 54.1 °F 30.3 in ESE 5.8 mph 5.8 mph 40 % 0 in
13:06 80.2 °F 53.8 °F 30.3 in SE 6.9 mph 6.9 mph 40 % 0 in
13:11 80.2 °F 53.8 °F 30.3 in SE 8.1 mph 8.1 mph 40 % 0 in
13:16 80.1 °F 53.6 °F 30.3 in ESE 9.7 mph 9.7 mph 40 % 0 in
13:21 79.5 °F 53.1 °F 30.3 in East 11.5 mph 11.5 mph 40 % 0 in
13:26 79.7 °F 53.2 °F 30.3 in SE 9.8 mph 9.8 mph 40 % 0 in
13:31 79.7 °F 53.2 °F 30.3 in ENE 10.4 mph 10.4 mph 40 % 0 in
13:36 80.1 °F 53.6 °F 30.3 in SSE 8.1 mph 8.1 mph 40 % 0 in
13:41 79.5 °F 52.3 °F 30.2 in ESE 10.5 mph 10.5 mph 39 % 0 in
13:46 80.1 °F 53.6 °F 30.2 in East 5.8 mph 5.8 mph 40 % 0 in
13:51 79.7 °F 52.5 °F 30.2 in East 8.1 mph 8.1 mph 39 % 0 in
13:56 79.5 °F 52.3 °F 30.2 in SE 9.2 mph 9.2 mph 39 % 0 in
14:01 80.2 °F 53.1 °F 30.2 in SE 10.9 mph 10.9 mph 39 % 0 in
14:06 80.8 °F 53.4 °F 30.2 in ESE 10 mph 10 mph 39 % 0 in
14:11 79.5 °F 52.3 °F 30.2 in NNE 11.5 mph 11.5 mph 39 % 0 in
14:16 79.7 °F 52.5 °F 30.2 in ESE 9.2 mph 9.2 mph 39 % 0 in
14:21 79.2 °F 52.2 °F 30.2 in ESE 12.7 mph 12.7 mph 39 % 0 in
14:26 79 °F 52 °F 30.2 in ESE 10.4 mph 10.4 mph 39 % 0 in
14:31 79.3 °F 52.2 °F 30.2 in ESE 5.8 mph 5.8 mph 39 % 0 in
14:36 78.8 °F 51.6 °F 30.2 in ESE 9.7 mph 9.7 mph 39 % 0 in
14:41 78.8 °F 51.6 °F 30.2 in ESE 12.7 mph 12.7 mph 39 % 0 in
14:46 79.2 °F 52.9 °F 30.2 in ESE 8.1 mph 8.1 mph 40 % 0 in
14:51 79.3 °F 52.9 °F 30.2 in ESE 10 mph 10 mph 40 % 0 in
14:56 79.3 °F 52.9 °F 30.2 in ENE 9.2 mph 9.2 mph 40 % 0 in
15:01 79.2 °F 52.9 °F 30.2 in ENE 9.2 mph 9.2 mph 40 % 0 in
15:06 79.3 °F 52.9 °F 30.2 in ESE 4.6 mph 4.6 mph 40 % 0 in
15:11 79.3 °F 52.9 °F 30.2 in ESE 6.9 mph 6.9 mph 40 % 0 in
15:16 79 °F 52.5 °F 30.2 in ENE 8.1 mph 8.1 mph 40 % 0 in
15:21 79 °F 52.5 °F 30.2 in ENE 9.2 mph 9.2 mph 40 % 0 in
15:26 79.3 °F 52.9 °F 30.2 in ENE 10.4 mph 10.4 mph 40 % 0 in
15:31 79.2 °F 52.9 °F 30.2 in ESE 8.1 mph 8.1 mph 40 % 0 in
15:36 79 °F 52.5 °F 30.2 in NNE 5.8 mph 5.8 mph 40 % 0 in
15:37 79 °F 53.2 °F 30.2 in NNE 5.8 mph 5.8 mph 41 % 0 in
15:42 79.9 °F 53.4 °F 30.2 in SW 5.8 mph 5.8 mph 40 % 0 in
15:47 83.1 °F 54.9 °F 30.2 in ESE 3.5 mph 3.5 mph 38 % 0 in
15:52 83.3 °F 53.6 °F 30.2 in South 5.8 mph 5.8 mph 36 % 0 in
15:57 84.6 °F 54 °F 30.2 in SSE 3.6 mph 3.6 mph 35 % 0 in
16:02 84.9 °F 53.4 °F 30.2 in SSE 8.1 mph 8.1 mph 34 % 0 in
16:07 84.2 °F 50.4 °F 30.2 in WSW 9.7 mph 9.7 mph 31 % 0 in
16:12 84.6 °F 50.5 °F 30.2 in SW 6.9 mph 6.9 mph 31 % 0 in
16:17 84.7 °F 50.7 °F 30.2 in SW 6.9 mph 6.9 mph 31 % 0 in
16:22 84.7 °F 49.8 °F 30.2 in SW 6.2 mph 6.2 mph 30 % 0 in
16:27 84.7 °F 48.9 °F 30.2 in ESE 6.9 mph 6.9 mph 29 % 0 in
16:32 84.9 °F 49.1 °F 30.2 in SSW 6.9 mph 6.9 mph 29 % 0 in
16:37 84.7 °F 48 °F 30.2 in SW 8.5 mph 8.5 mph 28 % 0 in
16:42 84 °F 48.4 °F 30.2 in SW 8.1 mph 8.1 mph 29 % 0 in
16:47 83.7 °F 48 °F 30.2 in SW 8.1 mph 8.1 mph 29 % 0 in
16:52 84.2 °F 47.7 °F 30.2 in South 5.8 mph 5.8 mph 28 % 0 in
16:57 84.2 °F 47.7 °F 30.2 in WSW 4.6 mph 4.6 mph 28 % 0 in
17:02 84.4 °F 47.7 °F 30.2 in SW 8.1 mph 8.1 mph 28 % 0 in
17:07 83.5 °F 46.9 °F 30.2 in SW 11.5 mph 11.5 mph 28 % 0 in
17:12 83.1 °F 46.6 °F 30.2 in WSW 11.5 mph 11.5 mph 28 % 0 in
17:17 82.8 °F 46.2 °F 30.2 in SW 10.4 mph 10.4 mph 28 % 0 in
17:22 82.8 °F 46.2 °F 30.2 in South 12.7 mph 12.7 mph 28 % 0 in
17:27 83.3 °F 46.8 °F 30.2 in SW 3.5 mph 3.5 mph 28 % 0 in
17:32 83.5 °F 46.9 °F 30.2 in SW 5.6 mph 5.6 mph 28 % 0 in
17:37 82.8 °F 46.2 °F 30.2 in SSW 8.1 mph 8.1 mph 28 % 0 in
17:42 83.3 °F 46.8 °F 30.2 in SW 8.1 mph 8.1 mph 28 % 0 in
17:47 83.3 °F 46.8 °F 30.2 in SW 6.9 mph 6.9 mph 28 % 0 in
17:52 82.8 °F 46.2 °F 30.2 in SW 9.2 mph 9.2 mph 28 % 0 in
17:57 82.8 °F 46.2 °F 30.2 in WSW 8.1 mph 8.1 mph 28 % 0 in
18:02 82.4 °F 46.9 °F 30.2 in SW 13.8 mph 13.8 mph 29 % 0 in
18:07 82.4 °F 46 °F 30.2 in SSE 5.8 mph 5.8 mph 28 % 0 in
18:12 82.8 °F 47.3 °F 30.2 in SW 4.6 mph 4.6 mph 29 % 0 in
18:17 82.2 °F 46.8 °F 30.2 in SW 8.1 mph 8.1 mph 29 % 0 in
18:22 81.9 °F 46.6 °F 30.2 in SW 8.1 mph 8.1 mph 29 % 0 in
18:27 81.9 °F 46.6 °F 30.2 in WSW 6.9 mph 6.9 mph 29 % 0 in
18:32 81.7 °F 46.2 °F 30.2 in SSW 5.8 mph 5.8 mph 29 % 0 in
18:37 81.3 °F 45.1 °F 30.2 in SW 12.1 mph 12.1 mph 28 % 0 in
18:42 81.1 °F 45 °F 30.2 in SW 6.9 mph 6.9 mph 28 % 0 in
18:47 80.8 °F 44.6 °F 30.2 in SSW 5.8 mph 5.8 mph 28 % 0 in
18:52 81.3 °F 46 °F 30.2 in SW 5.8 mph 5.8 mph 29 % 0 in
18:57 81.1 °F 45.9 °F 30.3 in South 5.8 mph 5.8 mph 29 % 0 in
19:02 81 °F 45.7 °F 30.3 in SW 4.9 mph 4.9 mph 29 % 0 in
19:07 80.2 °F 45.1 °F 30.3 in SW 5.8 mph 5.8 mph 29 % 0 in
19:12 79.9 °F 44.8 °F 30.2 in South 4.6 mph 4.6 mph 29 % 0 in
19:15 66 °F 48.9 °F 30.3 in Calm   1 mph 54 % 0 in
19:17 80.1 °F 45 °F 30.2 in SW 3.5 mph 3.5 mph 29 % 0 in
19:22 79.7 °F 44.6 °F 30.2 in SW 4.7 mph 4.7 mph 29 % 0 in
19:25 65.7 °F 49.5 °F 30.3 in Calm   1 mph 56 % 0 in
19:27 79.5 °F 45.3 °F 30.2 in South 3.5 mph 3.5 mph 30 % 0 in
19:32 78.8 °F 43.9 °F 30.2 in WSW 6.9 mph 6.9 mph 29 % 0 in
19:35 65.5 °F 49.8 °F 30.3 in Calm     57 % 0 in
19:37 78.8 °F 43.9 °F 30.2 in SW 6.9 mph 6.9 mph 29 % 0 in
19:42 78.3 °F 43.3 °F 30.3 in SW 5.8 mph 5.8 mph 29 % 0 in
19:45 65.1 °F 50 °F 30.3 in Calm     58 % 0 in
19:47 77.9 °F 44.1 °F 30.3 in SW 5.8 mph 5.8 mph 30 % 0 in
19:52 77.7 °F 43.9 °F 30.3 in SW 6 mph 6 mph 30 % 0 in
19:55 64.9 °F 50.4 °F 30.3 in Calm   1 mph 59 % 0 in
19:57 77.4 °F 43.5 °F 30.3 in WSW 4.3 mph 4.3 mph 30 % 0 in
20:02 77 °F 43.2 °F 30.3 in WSW 4.6 mph 4.6 mph 30 % 0 in
20:05 64.9 °F 50.7 °F 30.3 in NNE 1 mph 2 mph 60 % 0 in
20:07 76.6 °F 43.7 °F 30.3 in SW 5.8 mph 5.8 mph 31 % 0 in
20:12 76.5 °F 43.5 °F 30.3 in SW 4.6 mph 4.6 mph 31 % 0 in
20:15 64.8 °F 51.4 °F 30.3 in Calm   2 mph 62 % 0 in
20:17 76.1 °F 43.3 °F 30.3 in SW 4.6 mph 4.6 mph 31 % 0 in
20:22 75.7 °F 43 °F 30.3 in SSW 5.8 mph 5.8 mph 31 % 0 in
20:25 64.6 °F 51.3 °F 30.3 in Calm   1 mph 62 % 0 in
20:27 75.4 °F 42.6 °F 30.3 in SSW 3.5 mph 3.5 mph 31 % 0 in
20:32 75 °F 42.3 °F 30.3 in SW 4.6 mph 4.6 mph 31 % 0 in
20:37 74.7 °F 42.8 °F 30.3 in SSW 4.6 mph 4.6 mph 32 % 0 in
20:42 74.3 °F 42.4 °F 30.3 in SW 2.3 mph 2.3 mph 32 % 0 in
20:45 63.9 °F 51.1 °F 30.3 in Calm   2 mph 63 % 0 in
20:47 73.9 °F 42.3 °F 30.3 in SW 3.5 mph 3.5 mph 32 % 0 in
20:52 73.4 °F 42.4 °F 30.3 in South 4.6 mph 4.6 mph 33 % 0 in
20:55 63.5 °F 50.7 °F 30.3 in NE 1 mph 1 mph 63 % 0 in
20:57 73 °F 43 °F 30.2 in SW 2.9 mph 2.9 mph 34 % 0 in
21:02 72.9 °F 42.8 °F 30.2 in West 4.6 mph 4.6 mph 34 % 0 in
21:05 63.3 °F 49.6 °F 30.3 in Calm   1 mph 61 % 0 in
21:07 72.5 °F 43.3 °F 30.2 in WSW 3.5 mph 3.5 mph 35 % 0 in
21:12 72.3 °F 43.9 °F 30.2 in SW 2.3 mph 2.3 mph 36 % 0 in
21:15 63.1 °F 49.8 °F 30.3 in Calm     62 % 0 in
21:17 72 °F 43.5 °F 30.2 in WSW 2.3 mph 2.3 mph 36 % 0 in
21:22 71.8 °F 44.1 °F 30.2 in SW 2.3 mph 2.3 mph 37 % 0 in
21:25 62.8 °F 49.6 °F 30.3 in SSE 1 mph 2 mph 62 % 0 in
21:27 71.6 °F 43.9 °F 30.2 in SW 2.3 mph 2.3 mph 37 % 0 in
21:32 71.4 °F 43.9 °F 30.2 in SW 2.3 mph 2.3 mph 37 % 0 in
21:35 62.6 °F 50.2 °F 30.3 in Calm   1 mph 64 % 0 in
21:37 71.2 °F 44.2 °F 30.2 in Calm     38 % 0 in
21:42 71.1 °F 44.2 °F 30.2 in West 1.2 mph   38 % 0 in
21:45 62.4 °F 50.5 °F 30.3 in South 1 mph 1 mph 65 % 0 in
21:47 70.9 °F 44.1 °F 30.2 in West 1.4 mph   38 % 0 in
21:52 70.7 °F 44.4 °F 30.2 in Calm     39 % 0 in
21:55 62.2 °F 50.4 °F 30.3 in East 1 mph 2 mph 65 % 0 in
21:57 70.3 °F 44.2 °F 30.3 in Calm     39 % 0 in
22:02 70.3 °F 44.2 °F 30.3 in Calm     39 % 0 in
22:05 62.1 °F 49.6 °F 30.3 in Calm   1 mph 64 % 0 in
22:07 70.2 °F 44.1 °F 30.3 in Calm     39 % 0 in
22:12 70 °F 44.4 °F 30.3 in Calm     40 % 0 in
22:15 61.9 °F 49.6 °F 30.2 in Calm   2 mph 64 % 0 in
22:17 69.8 °F 44.4 °F 30.3 in Calm     40 % 0 in
22:22 69.6 °F 45 °F 30.3 in Calm     41 % 0 in
22:25 61.2 °F 49.3 °F 30.2 in Calm   1 mph 65 % 0 in
22:27 69.4 °F 44.8 °F 30.3 in West 1.2 mph   41 % 0 in
22:32 69.4 °F 45.3 °F 30.3 in West 1.2 mph   42 % 0 in
22:35 60.6 °F 48.7 °F 30.2 in Calm   1 mph 65 % 0 in
22:37 69.3 °F 45.1 °F 30.3 in West 1.2 mph   42 % 0 in
22:42 69.1 °F 45 °F 30.3 in Calm     42 % 0 in
22:45 60.3 °F 48.9 °F 30.2 in Calm   2 mph 66 % 0 in
22:47 69.1 °F 45.7 °F 30.3 in Calm     43 % 0 in
22:52 68.9 °F 45.5 °F 30.3 in West 1.2 mph   43 % 0 in
22:55 60.1 °F 48.7 °F 30.2 in Calm     66 % 0 in
22:57 68.7 °F 45.9 °F 30.3 in East 2.3 mph 2.3 mph 44 % 0 in
23:02 68.7 °F 45.9 °F 30.3 in East 1.2 mph 1.2 mph 44 % 0 in
23:05 60.1 °F 48.7 °F 30.2 in Calm     66 % 0 in
23:07 68.4 °F 46.8 °F 30.3 in East 1.2 mph   46 % 0 in
23:12 68.2 °F 47.7 °F 30.3 in Calm     48 % 0 in
23:15 60.3 °F 48.9 °F 30.2 in Calm     66 % 0 in
23:17 68 °F 48 °F 30.3 in Calm     49 % 0 in
23:22 67.8 °F 48.6 °F 30.3 in East 0.9 mph   50 % 0 in
23:25 60.1 °F 48.7 °F 30.2 in WSW 1 mph 2 mph 66 % 0 in
23:27 67.6 °F 48.4 °F 30.3 in Calm     50 % 0 in
23:32 67.1 °F 47.8 °F 30.3 in Calm     50 % 0 in
23:35 59.5 °F 48.6 °F 30.2 in Calm     67 % 0 in
23:37 66.9 °F 47.7 °F 30.3 in Calm     50 % 0 in
23:42 66.7 °F 47.5 °F 30.3 in Calm     50 % 0 in
23:45 59.4 °F 48.4 °F 30.2 in Calm     67 % 0 in
23:47 66.6 °F 47.8 °F 30.3 in Calm     51 % 0 in
23:52 66.4 °F 47.7 °F 30.3 in SSW 1.6 mph 1.6 mph 51 % 0 in
23:55 59.2 °F 48.2 °F 30.2 in Calm     67 % 0 in
23:57 66.2 °F 48 °F 30.3 in SSW 1.2 mph 1.2 mph 52 % 0 in
Meteo Sesrovires
Elogis d' Weather Underground - 3.75 mb

Guio original per  Jim McMurry - jmcmurry@mwt.net Adaptat per a la plantilla per  Wim van der Kuil - Leuven-Template.eu

Trobareu la nostra informacio del temps tambe a:

Weather Underground

AWEKAS